sensor_id;sensor_type;location;lat;lon;timestamp;pressure;altitude;pressure_sealevel;temperature;humidity
63535;BME280;55128;50.230;18.944;2024-01-30T00:00:57;100252.16;;;-1.46;79.75
63535;BME280;55128;50.230;18.944;2024-01-30T00:05:57;100248.59;;;-1.49;80.51
63535;BME280;55128;50.230;18.944;2024-01-30T00:10:57;100242.34;;;-1.54;80.07
63535;BME280;55128;50.230;18.944;2024-01-30T00:15:58;100239.84;;;-1.51;80.98
63535;BME280;55128;50.230;18.944;2024-01-30T00:20:58;100242.31;;;-1.56;81.14
63535;BME280;55128;50.230;18.944;2024-01-30T00:25:58;100237.31;;;-1.48;80.72
63535;BME280;55128;50.230;18.944;2024-01-30T00:30:59;100239.09;;;-1.47;80.00
63535;BME280;55128;50.230;18.944;2024-01-30T00:35:59;100245.75;;;-1.57;80.79
63535;BME280;55128;50.230;18.944;2024-01-30T00:40:59;100243.22;;;-1.55;80.45
63535;BME280;55128;50.230;18.944;2024-01-30T00:46:00;100237.25;;;-1.51;79.63
63535;BME280;55128;50.230;18.944;2024-01-30T00:51:00;100238.03;;;-1.54;80.12
63535;BME280;55128;50.230;18.944;2024-01-30T00:56:01;100229.94;;;-1.65;80.26
63535;BME280;55128;50.230;18.944;2024-01-30T01:01:01;100224.56;;;-1.69;80.24
63535;BME280;55128;50.230;18.944;2024-01-30T01:06:02;100224.66;;;-1.66;79.58
63535;BME280;55128;50.230;18.944;2024-01-30T01:11:03;100226.47;;;-1.64;80.03
63535;BME280;55128;50.230;18.944;2024-01-30T01:16:03;100216.97;;;-1.62;79.31
63535;BME280;55128;50.230;18.944;2024-01-30T01:21:04;100206.41;;;-1.68;79.95
63535;BME280;55128;50.230;18.944;2024-01-30T01:26:05;100202.91;;;-1.68;79.48
63535;BME280;55128;50.230;18.944;2024-01-30T01:31:05;100199.16;;;-1.78;79.38
63535;BME280;55128;50.230;18.944;2024-01-30T01:36:06;100194.88;;;-1.76;79.15
63535;BME280;55128;50.230;18.944;2024-01-30T01:41:06;100200.03;;;-1.78;79.38
63535;BME280;55128;50.230;18.944;2024-01-30T01:46:08;100196.59;;;-1.77;79.31
63535;BME280;55128;50.230;18.944;2024-01-30T01:51:09;100198.97;;;-1.84;78.45
63535;BME280;55128;50.230;18.944;2024-01-30T01:56:10;100198.03;;;-1.86;79.61
63535;BME280;55128;50.230;18.944;2024-01-30T02:01:11;100198.91;;;-1.87;79.09
63535;BME280;55128;50.230;18.944;2024-01-30T02:06:16;100193.41;;;-1.97;79.04
63535;BME280;55128;50.230;18.944;2024-01-30T02:11:17;100193.50;;;-1.93;79.20
63535;BME280;55128;50.230;18.944;2024-01-30T02:16:18;100189.84;;;-2.00;78.69
63535;BME280;55128;50.230;18.944;2024-01-30T02:21:19;100191.47;;;-2.04;79.24
63535;BME280;55128;50.230;18.944;2024-01-30T02:26:19;100182.63;;;-2.09;78.92
63535;BME280;55128;50.230;18.944;2024-01-30T02:31:20;100177.19;;;-2.17;79.87
63535;BME280;55128;50.230;18.944;2024-01-30T02:36:20;100179.94;;;-2.12;80.01
63535;BME280;55128;50.230;18.944;2024-01-30T02:41:22;100191.22;;;-2.11;78.48
63535;BME280;55128;50.230;18.944;2024-01-30T02:46:22;100180.38;;;-2.27;79.79
63535;BME280;55128;50.230;18.944;2024-01-30T02:51:22;100184.94;;;-2.18;79.55
63535;BME280;55128;50.230;18.944;2024-01-30T02:56:23;100180.66;;;-2.18;78.96
63535;BME280;55128;50.230;18.944;2024-01-30T03:01:23;100179.56;;;-2.24;78.79
63535;BME280;55128;50.230;18.944;2024-01-30T03:06:24;100176.09;;;-2.25;78.28
63535;BME280;55128;50.230;18.944;2024-01-30T03:11:25;100179.47;;;-2.27;78.48
63535;BME280;55128;50.230;18.944;2024-01-30T03:16:25;100178.53;;;-2.29;78.25
63535;BME280;55128;50.230;18.944;2024-01-30T03:21:25;100174.94;;;-2.35;79.02
63535;BME280;55128;50.230;18.944;2024-01-30T03:26:26;100175.84;;;-2.32;78.75
63535;BME280;55128;50.230;18.944;2024-01-30T03:31:26;100168.88;;;-2.33;78.95
63535;BME280;55128;50.230;18.944;2024-01-30T03:36:27;100166.91;;;-2.41;79.23
63535;BME280;55128;50.230;18.944;2024-01-30T03:41:27;100166.09;;;-2.40;78.56
63535;BME280;55128;50.230;18.944;2024-01-30T03:46:28;100165.16;;;-2.42;78.83
63535;BME280;55128;50.230;18.944;2024-01-30T03:51:28;100171.19;;;-2.43;79.14
63535;BME280;55128;50.230;18.944;2024-01-30T03:56:29;100163.31;;;-2.46;78.48
63535;BME280;55128;50.230;18.944;2024-01-30T04:01:29;100177.13;;;-2.47;78.65
63535;BME280;55128;50.230;18.944;2024-01-30T04:06:29;100177.94;;;-2.48;78.49
63535;BME280;55128;50.230;18.944;2024-01-30T04:11:30;100163.16;;;-2.50;78.40
63535;BME280;55128;50.230;18.944;2024-01-30T04:16:30;100164.81;;;-2.52;78.11
63535;BME280;55128;50.230;18.944;2024-01-30T04:21:30;100162.50;;;-2.70;78.81
63535;BME280;55128;50.230;18.944;2024-01-30T04:26:31;100151.59;;;-2.60;79.09
63535;BME280;55128;50.230;18.944;2024-01-30T04:31:32;100158.44;;;-2.62;78.25
63535;BME280;55128;50.230;18.944;2024-01-30T04:36:32;100162.16;;;-2.54;79.33
63535;BME280;55128;50.230;18.944;2024-01-30T04:41:32;100155.13;;;-2.58;78.51
63535;BME280;55128;50.230;18.944;2024-01-30T04:46:34;100168.00;;;-2.61;78.47
63535;BME280;55128;50.230;18.944;2024-01-30T04:51:34;100169.66;;;-2.63;79.01
63535;BME280;55128;50.230;18.944;2024-01-30T04:56:35;100165.09;;;-2.70;78.60
63535;BME280;55128;50.230;18.944;2024-01-30T05:01:35;100161.56;;;-2.72;78.36
63535;BME280;55128;50.230;18.944;2024-01-30T05:06:36;100157.28;;;-2.72;78.98
63535;BME280;55128;50.230;18.944;2024-01-30T05:11:38;100157.84;;;-2.81;78.83
63535;BME280;55128;50.230;18.944;2024-01-30T05:16:39;100159.72;;;-2.77;79.74
63535;BME280;55128;50.230;18.944;2024-01-30T05:21:39;100158.91;;;-2.74;79.26
63535;BME280;55128;50.230;18.944;2024-01-30T05:26:40;100163.97;;;-2.79;79.03
63535;BME280;55128;50.230;18.944;2024-01-30T05:31:40;100162.94;;;-2.84;78.58
63535;BME280;55128;50.230;18.944;2024-01-30T05:36:41;100166.38;;;-2.85;78.66
63535;BME280;55128;50.230;18.944;2024-01-30T05:41:41;100176.00;;;-2.82;78.79
63535;BME280;55128;50.230;18.944;2024-01-30T05:46:42;100171.59;;;-2.85;78.73
63535;BME280;55128;50.230;18.944;2024-01-30T05:51:42;100168.75;;;-2.91;78.34
63535;BME280;55128;50.230;18.944;2024-01-30T05:56:42;100168.38;;;-3.03;79.73
63535;BME280;55128;50.230;18.944;2024-01-30T06:01:47;100169.50;;;-2.95;81.10
63535;BME280;55128;50.230;18.944;2024-01-30T06:06:47;100172.25;;;-2.90;80.68
63535;BME280;55128;50.230;18.944;2024-01-30T06:11:48;100169.50;;;-2.95;80.79
63535;BME280;55128;50.230;18.944;2024-01-30T06:16:48;100162.81;;;-2.88;80.56
63535;BME280;55128;50.230;18.944;2024-01-30T06:21:49;100170.44;;;-2.93;80.22
63535;BME280;55128;50.230;18.944;2024-01-30T06:26:49;100162.75;;;-2.90;80.32
63535;BME280;55128;50.230;18.944;2024-01-30T06:31:50;100173.44;;;-2.81;80.18
63535;BME280;55128;50.230;18.944;2024-01-30T06:36:50;100171.41;;;-2.64;80.62
63535;BME280;55128;50.230;18.944;2024-01-30T06:41:51;100172.56;;;-2.54;80.56
63535;BME280;55128;50.230;18.944;2024-01-30T06:46:51;100177.25;;;-2.44;80.79
63535;BME280;55128;50.230;18.944;2024-01-30T06:51:52;100170.59;;;-0.42;80.42
63535;BME280;55128;50.230;18.944;2024-01-30T06:56:52;100174.13;;;0.85;74.50
63535;BME280;55128;50.230;18.944;2024-01-30T07:01:53;100169.53;;;1.22;76.23
63535;BME280;55128;50.230;18.944;2024-01-30T07:06:54;100173.03;;;5.01;74.24
63535;BME280;55128;50.230;18.944;2024-01-30T07:11:54;100160.94;;;7.36;67.98
63535;BME280;55128;50.230;18.944;2024-01-30T07:16:55;100171.38;;;8.40;68.55
63535;BME280;55128;50.230;18.944;2024-01-30T07:21:56;100182.16;;;8.94;58.72
63535;BME280;55128;50.230;18.944;2024-01-30T07:26:56;100185.50;;;10.61;62.33
63535;BME280;55128;50.230;18.944;2024-01-30T07:31:57;100190.78;;;12.76;56.78
63535;BME280;55128;50.230;18.944;2024-01-30T07:36:57;100193.19;;;12.84;54.05
63535;BME280;55128;50.230;18.944;2024-01-30T07:41:58;100183.25;;;14.00;43.78
63535;BME280;55128;50.230;18.944;2024-01-30T07:46:58;100197.53;;;15.65;42.90
63535;BME280;55128;50.230;18.944;2024-01-30T07:51:59;100198.59;;;16.65;40.57
63535;BME280;55128;50.230;18.944;2024-01-30T07:57:00;100197.88;;;18.10;42.17
63535;BME280;55128;50.230;18.944;2024-01-30T08:02:01;100191.06;;;17.49;40.88
63535;BME280;55128;50.230;18.944;2024-01-30T08:07:01;100194.41;;;16.39;43.67
63535;BME280;55128;50.230;18.944;2024-01-30T08:12:02;100200.78;;;15.29;35.94
63535;BME280;55128;50.230;18.944;2024-01-30T08:17:03;100205.19;;;11.32;40.61
63535;BME280;55128;50.230;18.944;2024-01-30T08:22:03;100208.22;;;9.25;46.08
63535;BME280;55128;50.230;18.944;2024-01-30T08:27:04;100204.88;;;8.44;49.20
63535;BME280;55128;50.230;18.944;2024-01-30T08:32:05;100195.16;;;8.41;56.05
63535;BME280;55128;50.230;18.944;2024-01-30T08:37:06;100195.53;;;8.86;49.87
63535;BME280;55128;50.230;18.944;2024-01-30T08:42:07;100198.94;;;8.94;50.30
63535;BME280;55128;50.230;18.944;2024-01-30T08:47:08;100196.16;;;8.31;52.85
63535;BME280;55128;50.230;18.944;2024-01-30T08:52:08;100194.28;;;11.05;46.85
63535;BME280;55128;50.230;18.944;2024-01-30T08:57:09;100192.31;;;15.62;42.69
63535;BME280;55128;50.230;18.944;2024-01-30T09:02:09;100203.13;;;18.46;35.12
63535;BME280;55128;50.230;18.944;2024-01-30T09:07:10;100199.34;;;20.40;30.18
63535;BME280;55128;50.230;18.944;2024-01-30T09:12:10;100204.56;;;21.98;27.44
63535;BME280;55128;50.230;18.944;2024-01-30T09:17:11;100197.38;;;23.01;26.56
63535;BME280;55128;50.230;18.944;2024-01-30T09:22:12;100205.81;;;24.19;24.22
63535;BME280;55128;50.230;18.944;2024-01-30T09:27:13;100207.06;;;24.73;22.64
63535;BME280;55128;50.230;18.944;2024-01-30T09:32:13;100202.75;;;25.27;22.72
63535;BME280;55128;50.230;18.944;2024-01-30T09:37:13;100202.03;;;25.25;21.71
63535;BME280;55128;50.230;18.944;2024-01-30T09:42:28;100204.72;;;25.47;20.36
63535;BME280;55128;50.230;18.944;2024-01-30T09:47:52;100200.91;;;26.35;18.82
63535;BME280;55128;50.230;18.944;2024-01-30T09:52:55;100197.41;;;25.80;20.49
63535;BME280;55128;50.230;18.944;2024-01-30T09:57:57;100190.25;;;24.10;21.26
63535;BME280;55128;50.230;18.944;2024-01-30T10:02:57;100193.38;;;24.86;19.99
63535;BME280;55128;50.230;18.944;2024-01-30T10:07:57;100178.44;;;24.22;20.83
63535;BME280;55128;50.230;18.944;2024-01-30T10:12:59;100173.59;;;23.18;21.04
63535;BME280;55128;50.230;18.944;2024-01-30T10:17:59;100174.16;;;23.71;19.93
63535;BME280;55128;50.230;18.944;2024-01-30T10:23:01;100170.44;;;24.32;20.03
63535;BME280;55128;50.230;18.944;2024-01-30T10:28:01;100167.03;;;22.19;21.31
63535;BME280;55128;50.230;18.944;2024-01-30T10:33:02;100157.44;;;22.66;20.99
63535;BME280;55128;50.230;18.944;2024-01-30T10:38:03;100146.22;;;21.81;20.95
63535;BME280;55128;50.230;18.944;2024-01-30T10:43:08;100139.78;;;18.08;24.92
63535;BME280;55128;50.230;18.944;2024-01-30T10:48:12;100134.34;;;14.72;29.12
63535;BME280;55128;50.230;18.944;2024-01-30T10:53:14;100120.00;;;13.51;31.19
63535;BME280;55128;50.230;18.944;2024-01-30T10:58:16;100116.59;;;12.61;32.44
63535;BME280;55128;50.230;18.944;2024-01-30T11:03:16;100115.81;;;11.96;33.95
63535;BME280;55128;50.230;18.944;2024-01-30T11:08:24;100110.53;;;11.60;34.97
63535;BME280;55128;50.230;18.944;2024-01-30T11:13:31;100100.44;;;11.37;35.30
63535;BME280;55128;50.230;18.944;2024-01-30T11:18:33;100107.91;;;10.87;35.84
63535;BME280;55128;50.230;18.944;2024-01-30T11:23:34;100101.34;;;11.02;36.23
63535;BME280;55128;50.230;18.944;2024-01-30T11:28:37;100098.53;;;11.08;36.44
63535;BME280;55128;50.230;18.944;2024-01-30T11:33:38;100102.16;;;10.66;37.04
63535;BME280;55128;50.230;18.944;2024-01-30T11:38:38;100099.59;;;10.62;37.61
63535;BME280;55128;50.230;18.944;2024-01-30T11:43:39;100084.84;;;10.48;37.00
63535;BME280;55128;50.230;18.944;2024-01-30T11:48:39;100079.69;;;10.41;38.83
63535;BME280;55128;50.230;18.944;2024-01-30T11:53:41;100064.09;;;10.24;38.97
63535;BME280;55128;50.230;18.944;2024-01-30T11:58:45;100060.00;;;10.07;39.76
63535;BME280;55128;50.230;18.944;2024-01-30T12:03:52;100058.28;;;10.06;40.51
63535;BME280;55128;50.230;18.944;2024-01-30T12:08:59;100048.38;;;10.15;39.65
63535;BME280;55128;50.230;18.944;2024-01-30T12:14:00;100047.13;;;9.89;40.08
63535;BME280;55128;50.230;18.944;2024-01-30T12:19:00;100038.44;;;9.82;39.82
63535;BME280;55128;50.230;18.944;2024-01-30T12:24:02;100031.88;;;9.55;40.01
63535;BME280;55128;50.230;18.944;2024-01-30T12:29:04;100028.16;;;9.65;40.71
63535;BME280;55128;50.230;18.944;2024-01-30T12:34:04;100021.22;;;9.58;41.40
63535;BME280;55128;50.230;18.944;2024-01-30T12:39:05;100015.47;;;9.80;41.49
63535;BME280;55128;50.230;18.944;2024-01-30T12:44:05;100013.81;;;9.74;41.79
63535;BME280;55128;50.230;18.944;2024-01-30T12:49:06;100009.19;;;9.85;41.88
63535;BME280;55128;50.230;18.944;2024-01-30T12:54:07;99999.81;;;9.67;41.50
63535;BME280;55128;50.230;18.944;2024-01-30T12:59:07;100002.13;;;9.84;41.96
63535;BME280;55128;50.230;18.944;2024-01-30T13:04:08;100008.63;;;9.69;41.91
63535;BME280;55128;50.230;18.944;2024-01-30T13:09:08;100006.31;;;9.52;42.73
63535;BME280;55128;50.230;18.944;2024-01-30T13:14:09;100004.50;;;9.54;43.24
63535;BME280;55128;50.230;18.944;2024-01-30T13:19:09;100009.91;;;9.50;43.01
63535;BME280;55128;50.230;18.944;2024-01-30T13:24:10;100008.97;;;9.51;42.96
63535;BME280;55128;50.230;18.944;2024-01-30T13:29:10;100003.63;;;9.54;43.42
63535;BME280;55128;50.230;18.944;2024-01-30T13:34:11;100000.66;;;9.24;44.64
63535;BME280;55128;50.230;18.944;2024-01-30T13:39:11;99993.94;;;9.05;44.75
63535;BME280;55128;50.230;18.944;2024-01-30T13:44:12;99993.81;;;9.11;44.34
63535;BME280;55128;50.230;18.944;2024-01-30T13:49:13;99986.91;;;9.01;45.42
63535;BME280;55128;50.230;18.944;2024-01-30T13:54:14;99984.38;;;8.96;45.60
63535;BME280;55128;50.230;18.944;2024-01-30T13:59:15;99980.06;;;8.90;45.50
63535;BME280;55128;50.230;18.944;2024-01-30T14:04:21;99977.53;;;8.83;46.60
63535;BME280;55128;50.230;18.944;2024-01-30T14:09:22;99985.38;;;8.89;45.67
63535;BME280;55128;50.230;18.944;2024-01-30T14:14:22;99982.03;;;8.76;46.64
63535;BME280;55128;50.230;18.944;2024-01-30T14:19:22;99977.97;;;8.55;46.91
63535;BME280;55128;50.230;18.944;2024-01-30T14:24:23;99980.13;;;8.28;47.84
63535;BME280;55128;50.230;18.944;2024-01-30T14:29:23;99977.47;;;8.30;47.44
63535;BME280;55128;50.230;18.944;2024-01-30T14:34:24;99987.38;;;8.14;48.02
63535;BME280;55128;50.230;18.944;2024-01-30T14:39:24;99975.22;;;8.01;48.48
63535;BME280;55128;50.230;18.944;2024-01-30T14:44:25;99970.97;;;7.89;48.94
63535;BME280;55128;50.230;18.944;2024-01-30T14:49:25;99976.41;;;7.76;50.13
63535;BME280;55128;50.230;18.944;2024-01-30T14:54:27;99972.19;;;7.62;49.63
63535;BME280;55128;50.230;18.944;2024-01-30T14:59:27;99968.03;;;7.40;50.09
63535;BME280;55128;50.230;18.944;2024-01-30T15:04:28;99970.00;;;7.23;50.22
63535;BME280;55128;50.230;18.944;2024-01-30T15:09:28;99972.78;;;7.08;50.87
63535;BME280;55128;50.230;18.944;2024-01-30T15:14:28;99972.97;;;6.89;50.99
63535;BME280;55128;50.230;18.944;2024-01-30T15:19:29;99973.03;;;6.78;51.42
63535;BME280;55128;50.230;18.944;2024-01-30T15:24:29;99969.69;;;6.56;51.41
63535;BME280;55128;50.230;18.944;2024-01-30T15:29:30;99966.44;;;6.23;52.26
63535;BME280;55128;50.230;18.944;2024-01-30T15:34:30;99966.53;;;6.03;53.88
63535;BME280;55128;50.230;18.944;2024-01-30T15:39:31;99970.97;;;5.91;54.25
63535;BME280;55128;50.230;18.944;2024-01-30T15:44:31;99963.16;;;5.77;53.96
63535;BME280;55128;50.230;18.944;2024-01-30T15:49:32;99961.50;;;5.56;55.28
63535;BME280;55128;50.230;18.944;2024-01-30T15:54:32;99972.97;;;5.33;57.04
63535;BME280;55128;50.230;18.944;2024-01-30T15:59:32;99973.88;;;5.18;55.93
63535;BME280;55128;50.230;18.944;2024-01-30T16:04:33;99970.41;;;4.96;56.64
63535;BME280;55128;50.230;18.944;2024-01-30T16:09:33;99966.06;;;4.58;58.75
63535;BME280;55128;50.230;18.944;2024-01-30T16:14:34;99972.16;;;4.26;58.54
63535;BME280;55128;50.230;18.944;2024-01-30T16:19:36;99976.50;;;4.11;58.98
63535;BME280;55128;50.230;18.944;2024-01-30T16:24:36;99967.72;;;4.02;59.30
63535;BME280;55128;50.230;18.944;2024-01-30T16:29:37;99963.25;;;3.70;60.50
63535;BME280;55128;50.230;18.944;2024-01-30T16:34:37;99969.31;;;3.54;61.56
63535;BME280;55128;50.230;18.944;2024-01-30T16:39:38;99969.31;;;3.49;62.07
63535;BME280;55128;50.230;18.944;2024-01-30T16:44:38;99975.38;;;3.39;61.55
63535;BME280;55128;50.230;18.944;2024-01-30T16:49:38;99963.09;;;3.34;62.60
63535;BME280;55128;50.230;18.944;2024-01-30T16:54:39;99969.25;;;3.39;61.61
63535;BME280;55128;50.230;18.944;2024-01-30T16:59:39;99965.81;;;3.58;61.00
63535;BME280;55128;50.230;18.944;2024-01-30T17:04:39;99960.50;;;3.41;61.32
63535;BME280;55128;50.230;18.944;2024-01-30T17:09:40;99957.91;;;3.46;61.36
63535;BME280;55128;50.230;18.944;2024-01-30T17:14:40;99965.84;;;3.66;61.09
63535;BME280;55128;50.230;18.944;2024-01-30T17:19:41;99959.69;;;3.56;60.85
63535;BME280;55128;50.230;18.944;2024-01-30T17:24:42;99962.31;;;3.52;60.79
63535;BME280;55128;50.230;18.944;2024-01-30T17:29:43;99959.72;;;3.59;60.76
63535;BME280;55128;50.230;18.944;2024-01-30T17:34:44;99956.19;;;3.54;60.79
63535;BME280;55128;50.230;18.944;2024-01-30T17:39:44;99961.41;;;3.46;60.87
63535;BME280;55128;50.230;18.944;2024-01-30T17:44:45;99950.91;;;3.45;61.06
63535;BME280;55128;50.230;18.944;2024-01-30T17:49:46;99959.59;;;3.31;61.27
63535;BME280;55128;50.230;18.944;2024-01-30T17:54:46;99964.88;;;3.35;62.08
63535;BME280;55128;50.230;18.944;2024-01-30T17:59:46;99960.44;;;3.32;61.55
63535;BME280;55128;50.230;18.944;2024-01-30T18:04:47;99965.72;;;3.29;61.04
63535;BME280;55128;50.230;18.944;2024-01-30T18:09:48;99968.25;;;3.18;62.20
63535;BME280;55128;50.230;18.944;2024-01-30T18:14:49;99969.09;;;3.11;62.25
63535;BME280;55128;50.230;18.944;2024-01-30T18:19:50;99966.44;;;3.05;62.34
63535;BME280;55128;50.230;18.944;2024-01-30T18:24:50;99963.81;;;3.03;62.26
63535;BME280;55128;50.230;18.944;2024-01-30T18:29:50;99967.22;;;2.90;62.37
63535;BME280;55128;50.230;18.944;2024-01-30T18:34:51;99961.94;;;2.84;62.04
63535;BME280;55128;50.230;18.944;2024-01-30T18:39:51;99963.56;;;2.68;62.59
63535;BME280;55128;50.230;18.944;2024-01-30T18:44:52;99951.22;;;2.56;63.99
63535;BME280;55128;50.230;18.944;2024-01-30T18:49:52;99952.94;;;2.48;64.03
63535;BME280;55128;50.230;18.944;2024-01-30T18:54:53;99959.88;;;2.46;63.34
63535;BME280;55128;50.230;18.944;2024-01-30T18:59:53;99968.56;;;2.37;63.48
63535;BME280;55128;50.230;18.944;2024-01-30T19:04:53;99965.84;;;2.28;63.84
63535;BME280;55128;50.230;18.944;2024-01-30T19:09:54;99971.84;;;2.16;64.25
63535;BME280;55128;50.230;18.944;2024-01-30T19:14:55;99969.97;;;2.04;64.61
63535;BME280;55128;50.230;18.944;2024-01-30T19:19:55;99967.28;;;1.98;64.88
63535;BME280;55128;50.230;18.944;2024-01-30T19:24:56;99967.34;;;2.03;64.88
63535;BME280;55128;50.230;18.944;2024-01-30T19:29:57;99964.56;;;1.87;65.28
63535;BME280;55128;50.230;18.944;2024-01-30T19:34:57;99964.41;;;1.73;66.10
63535;BME280;55128;50.230;18.944;2024-01-30T19:39:58;99961.81;;;1.75;66.37
63535;BME280;55128;50.230;18.944;2024-01-30T19:44:59;99964.34;;;1.69;65.55
63535;BME280;55128;50.230;18.944;2024-01-30T19:49:59;99964.38;;;1.72;65.18
63535;BME280;55128;50.230;18.944;2024-01-30T19:54:59;99976.47;;;1.61;65.24
63535;BME280;55128;50.230;18.944;2024-01-30T20:00:00;99967.69;;;1.57;65.89
63535;BME280;55128;50.230;18.944;2024-01-30T20:05:01;99960.59;;;1.45;65.96
63535;BME280;55128;50.230;18.944;2024-01-30T20:10:01;99956.34;;;1.55;65.34
63535;BME280;55128;50.230;18.944;2024-01-30T20:15:02;99964.25;;;1.60;65.96
63535;BME280;55128;50.230;18.944;2024-01-30T20:20:04;99959.16;;;1.72;64.54
63535;BME280;55128;50.230;18.944;2024-01-30T20:25:04;99952.16;;;1.69;64.23
63535;BME280;55128;50.230;18.944;2024-01-30T20:30:08;99956.56;;;1.75;64.40
63535;BME280;55128;50.230;18.944;2024-01-30T20:35:12;99945.09;;;1.64;64.33
63535;BME280;55128;50.230;18.944;2024-01-30T20:40:12;99941.75;;;1.77;63.85
63535;BME280;55128;50.230;18.944;2024-01-30T20:45:13;99938.25;;;1.75;63.95
63535;BME280;55128;50.230;18.944;2024-01-30T20:50:14;99937.44;;;1.81;63.60
63535;BME280;55128;50.230;18.944;2024-01-30T20:55:14;99926.16;;;1.86;63.66
63535;BME280;55128;50.230;18.944;2024-01-30T21:00:15;99930.50;;;1.86;63.22
63535;BME280;55128;50.230;18.944;2024-01-30T21:05:16;99928.97;;;2.08;62.81
63535;BME280;55128;50.230;18.944;2024-01-30T21:10:22;99916.72;;;2.04;62.60
63535;BME280;55128;50.230;18.944;2024-01-30T21:15:22;99922.97;;;2.18;62.19
63535;BME280;55128;50.230;18.944;2024-01-30T21:20:23;99929.00;;;2.09;62.34
63535;BME280;55128;50.230;18.944;2024-01-30T21:25:23;99926.50;;;2.25;61.51
63535;BME280;55128;50.230;18.944;2024-01-30T21:30:23;99927.38;;;2.27;61.82
63535;BME280;55128;50.230;18.944;2024-01-30T21:35:24;99920.41;;;2.24;61.87
63535;BME280;55128;50.230;18.944;2024-01-30T21:40:24;99920.34;;;2.21;61.28
63535;BME280;55128;50.230;18.944;2024-01-30T21:45:25;99927.31;;;2.19;61.82
63535;BME280;55128;50.230;18.944;2024-01-30T21:50:25;99930.09;;;2.33;60.99
63535;BME280;55128;50.230;18.944;2024-01-30T21:55:26;99928.38;;;2.37;60.90
63535;BME280;55128;50.230;18.944;2024-01-30T22:00:26;99932.69;;;2.31;61.09
63535;BME280;55128;50.230;18.944;2024-01-30T22:05:26;99939.72;;;2.40;60.57
63535;BME280;55128;50.230;18.944;2024-01-30T22:10:27;99938.09;;;2.55;60.62
63535;BME280;55128;50.230;18.944;2024-01-30T22:15:27;99938.97;;;2.55;60.66
63535;BME280;55128;50.230;18.944;2024-01-30T22:20:29;99931.13;;;2.57;61.36
63535;BME280;55128;50.230;18.944;2024-01-30T22:25:29;99942.56;;;2.65;60.93
63535;BME280;55128;50.230;18.944;2024-01-30T22:30:29;99942.63;;;2.72;60.59
63535;BME280;55128;50.230;18.944;2024-01-30T22:35:30;99948.69;;;2.65;61.30
63535;BME280;55128;50.230;18.944;2024-01-30T22:40:30;99940.03;;;2.77;60.90
63535;BME280;55128;50.230;18.944;2024-01-30T22:45:30;99937.34;;;2.69;61.30
63535;BME280;55128;50.230;18.944;2024-01-30T22:50:31;99942.69;;;2.82;61.45
63535;BME280;55128;50.230;18.944;2024-01-30T22:55:31;99938.34;;;2.85;61.30
63535;BME280;55128;50.230;18.944;2024-01-30T23:00:32;99941.88;;;2.92;61.62
63535;BME280;55128;50.230;18.944;2024-01-30T23:05:32;99937.50;;;2.92;60.83
63535;BME280;55128;50.230;18.944;2024-01-30T23:10:33;99934.91;;;3.00;61.18
63535;BME280;55128;50.230;18.944;2024-01-30T23:15:33;99942.00;;;3.10;60.79
63535;BME280;55128;50.230;18.944;2024-01-30T23:20:34;99944.63;;;3.14;60.93
63535;BME280;55128;50.230;18.944;2024-01-30T23:25:36;99944.63;;;3.15;61.08
63535;BME280;55128;50.230;18.944;2024-01-30T23:30:36;99939.44;;;3.21;61.16
63535;BME280;55128;50.230;18.944;2024-01-30T23:35:37;99941.13;;;3.13;61.34
63535;BME280;55128;50.230;18.944;2024-01-30T23:40:37;99931.56;;;3.27;61.11
63535;BME280;55128;50.230;18.944;2024-01-30T23:45:42;99922.84;;;3.31;61.24
63535;BME280;55128;50.230;18.944;2024-01-30T23:50:43;99933.34;;;3.28;61.09
63535;BME280;55128;50.230;18.944;2024-01-30T23:55:43;99932.47;;;3.36;60.95
